Time;durP1;ratioP1;P1;durP2;ratioP2;P2;SDS_P1;SDS_P2;PMS_P1;PMS_P2;Temp;Humidity;BMP_temperature;BMP_pressure;BME280_temperature;BME280_humidity;BME280_pressure;Samples;Min_cycle;Max_cycle;Signal;HPM_P1;HPM_P2
2021/11/26 00:02:19;;;;;;;113.13;24.15;;;8.40;90.20;;;;;;5028461;28;20486;-60
2021/11/26 00:04:45;;;;;;;92.38;23.00;;;8.30;90.30;;;;;;5012741;28;20097;-60
2021/11/26 00:07:11;;;;;;;108.85;24.33;;;8.30;90.20;;;;;;5013446;28;20757;-61
2021/11/26 00:09:36;;;;;;;118.55;24.90;;;8.30;90.30;;;;;;5047783;28;20036;-60
2021/11/26 00:12:02;;;;;;;110.60;24.33;;;8.30;90.20;;;;;;5015389;28;20173;-60
2021/11/26 00:14:31;;;;;;;97.15;23.20;;;8.30;90.20;;;;;;5047687;28;20036;-60
2021/11/26 00:16:58;;;;;;;90.65;22.85;;;8.20;90.20;;;;;;5014339;28;20020;-61
2021/11/26 00:19:26;;;;;;;79.57;21.50;;;8.20;90.20;;;;;;5013584;28;20085;-61
2021/11/26 00:21:52;;;;;;;103.72;21.90;;;8.20;90.20;;;;;;5029005;28;20044;-60
2021/11/26 00:24:18;;;;;;;87.35;22.25;;;8.20;90.20;;;;;;5032082;28;20097;-61
2021/11/26 00:26:44;;;;;;;91.97;22.13;;;8.20;90.30;;;;;;5014334;28;20029;-61
2021/11/26 00:29:09;;;;;;;87.35;21.88;;;8.20;90.40;;;;;;5030432;28;20021;-61
2021/11/26 00:31:35;;;;;;;85.63;21.33;;;8.20;90.30;;;;;;5028514;28;20036;-60
2021/11/26 00:34:01;;;;;;;106.63;21.08;;;8.20;90.30;;;;;;5013523;28;20084;-61
2021/11/26 00:36:26;;;;;;;90.30;21.20;;;8.20;90.30;;;;;;5029813;28;20034;-60
2021/11/26 00:38:52;;;;;;;83.22;21.00;;;8.20;90.30;;;;;;5032079;28;20025;-61
2021/11/26 00:41:17;;;;;;;72.40;20.73;;;8.20;90.20;;;;;;5013468;28;20024;-62
2021/11/26 00:43:46;;;;;;;78.90;22.30;;;8.20;90.20;;;;;;5027927;28;20052;-61
2021/11/26 00:46:12;;;;;;;83.40;21.17;;;8.20;90.20;;;;;;5012131;28;20073;-60
2021/11/26 00:48:37;;;;;;;75.88;20.63;;;8.20;90.20;;;;;;5013087;28;20048;-60
2021/11/26 00:51:03;;;;;;;72.90;21.50;;;8.20;90.10;;;;;;5032533;28;20024;-60
2021/11/26 00:53:29;;;;;;;69.65;20.23;;;8.20;90.10;;;;;;5027311;28;20073;-61
2021/11/26 00:55:54;;;;;;;65.65;20.20;;;8.20;90.10;;;;;;5030829;28;20439;-60
2021/11/26 00:58:20;;;;;;;70.95;21.55;;;8.20;90.10;;;;;;5012274;28;20025;-60
2021/11/26 01:00:45;;;;;;;65.28;20.58;;;8.20;90.10;;;;;;5029251;28;20032;-60
2021/11/26 01:03:11;;;;;;;60.38;19.50;;;8.20;90.20;;;;;;5027914;28;20411;-60
2021/11/26 01:05:36;;;;;;;64.85;18.67;;;8.20;90.20;;;;;;5030087;28;20337;-61
2021/11/26 01:08:02;;;;;;;66.35;17.65;;;8.10;90.10;;;;;;5046406;28;20115;-60
2021/11/26 01:10:27;;;;;;;70.60;18.77;;;8.10;90.10;;;;;;5013416;28;20040;-61
2021/11/26 01:12:53;;;;;;;75.53;20.95;;;8.10;90.10;;;;;;5011479;28;20033;-60
2021/11/26 01:15:21;;;;;;;71.13;18.67;;;8.10;90.10;;;;;;5030094;28;20298;-60
2021/11/26 01:17:47;;;;;;;57.50;19.38;;;8.10;90.20;;;;;;5011178;28;20099;-61
2021/11/26 01:20:15;;;;;;;75.95;20.73;;;8.10;90.30;;;;;;5026725;28;20545;-60
2021/11/26 01:22:40;;;;;;;50.75;19.35;;;7.90;90.30;;;;;;5029289;28;20123;-60
2021/11/26 01:25:07;;;;;;;57.30;18.70;;;8.10;90.40;;;;;;5029737;28;20112;-62
2021/11/26 01:27:33;;;;;;;56.72;18.13;;;8.20;90.40;;;;;;5028399;28;20044;-60
2021/11/26 01:29:58;;;;;;;58.72;18.85;;;8.00;90.40;;;;;;5031413;28;20375;-61
2021/11/26 01:32:24;;;;;;;67.00;18.48;;;8.00;90.40;;;;;;5012259;28;20037;-60
2021/11/26 01:34:49;;;;;;;59.50;18.23;;;8.00;90.40;;;;;;5025135;28;20024;-60
2021/11/26 01:37:15;;;;;;;53.47;16.77;;;8.10;90.60;;;;;;5011689;28;20024;-60
2021/11/26 01:39:40;;;;;;;67.80;19.05;;;8.00;90.50;;;;;;5012437;28;20040;-60
2021/11/26 01:42:06;;;;;;;71.22;18.63;;;8.00;90.60;;;;;;5028762;28;20460;-60
2021/11/26 01:44:32;;;;;;;60.63;18.83;;;8.00;90.60;;;;;;5013816;28;21015;-60
2021/11/26 01:46:57;;;;;;;58.65;18.00;;;8.00;90.60;;;;;;5028238;28;20135;-60
2021/11/26 01:49:23;;;;;;;50.40;18.75;;;7.90;90.70;;;;;;5028617;28;20111;-60
2021/11/26 01:51:48;;;;;;;51.20;16.95;;;7.90;90.60;;;;;;5026834;28;20085;-60
2021/11/26 01:54:14;;;;;;;43.78;17.17;;;7.90;90.60;;;;;;5012370;28;20102;-60
2021/11/26 01:56:39;;;;;;;53.95;16.77;;;7.90;90.60;;;;;;5012234;28;20483;-61
2021/11/26 01:59:05;;;;;;;56.00;17.48;;;7.90;90.60;;;;;;5012467;28;20032;-61
2021/11/26 02:01:30;;;;;;;68.10;17.98;;;7.90;90.70;;;;;;5026871;28;20097;-61
2021/11/26 02:03:56;;;;;;;47.40;18.58;;;7.90;90.60;;;;;;5025835;28;20072;-60
2021/11/26 02:06:21;;;;;;;48.10;16.58;;;7.90;90.60;;;;;;5009811;28;20052;-61
2021/11/26 02:08:50;;;;;;;41.08;16.63;;;7.90;90.60;;;;;;5028750;28;20107;-61
2021/11/26 02:11:16;;;;;;;59.80;17.60;;;7.80;90.60;;;;;;5028672;28;20116;-61
2021/11/26 02:13:42;;;;;;;54.60;17.13;;;7.80;90.60;;;;;;5011231;28;20055;-61
2021/11/26 02:16:08;;;;;;;45.40;17.15;;;7.80;90.50;;;;;;5026010;28;20060;-61
2021/11/26 02:18:33;;;;;;;45.38;15.98;;;7.80;90.50;;;;;;5008020;28;20053;-60
2021/11/26 02:20:59;;;;;;;45.58;17.30;;;7.80;90.50;;;;;;5009286;28;20032;-61
2021/11/26 02:23:25;;;;;;;38.33;16.30;;;7.80;90.50;;;;;;5029079;28;20032;-62
2021/11/26 02:25:50;;;;;;;40.30;16.63;;;7.70;90.50;;;;;;5043905;28;20028;-64
2021/11/26 02:28:17;;;;;;;38.38;15.05;;;7.80;90.50;;;;;;5039892;28;20161;-61
2021/11/26 02:30:42;;;;;;;31.77;15.13;;;7.70;90.50;;;;;;5024274;28;20024;-61
2021/11/26 02:33:16;;;;;;;39.45;16.05;;;7.70;90.50;;;;;;5005854;28;20436;-61
2021/11/26 02:35:41;;;;;;;41.83;16.02;;;7.70;90.40;;;;;;5029578;28;20498;-60
2021/11/26 02:38:08;;;;;;;36.40;15.15;;;7.70;90.50;;;;;;5006050;28;20028;-60
2021/11/26 02:40:35;;;;;;;43.65;16.60;;;7.70;90.40;;;;;;5009893;28;20033;-60
2021/11/26 02:43:00;;;;;;;35.97;16.27;;;7.70;90.40;;;;;;5007965;28;20109;-61
2021/11/26 02:45:26;;;;;;;42.47;16.20;;;7.70;90.50;;;;;;5024540;28;20115;-61
2021/11/26 02:47:53;;;;;;;36.75;15.45;;;7.70;90.50;;;;;;5058579;28;20131;-61
2021/11/26 02:50:18;;;;;;;40.65;16.67;;;7.60;90.40;;;;;;5025279;28;20032;-60
2021/11/26 02:52:45;;;;;;;35.75;15.35;;;7.60;90.40;;;;;;5009030;28;20016;-61
2021/11/26 02:55:13;;;;;;;31.83;16.30;;;7.60;90.50;;;;;;5026545;28;20028;-60
2021/11/26 02:57:38;;;;;;;31.75;16.52;;;7.60;90.40;;;;;;5058672;28;20539;-60
2021/11/26 03:00:04;;;;;;;36.95;17.23;;;7.60;90.40;;;;;;5010662;28;20077;-60
2021/11/26 03:02:30;;;;;;;37.65;15.85;;;7.60;90.40;;;;;;5010385;28;20020;-60
2021/11/26 03:04:56;;;;;;;37.35;16.77;;;7.50;90.40;;;;;;5009223;28;20037;-60
2021/11/26 03:07:22;;;;;;;34.83;16.38;;;7.50;90.50;;;;;;5043355;28;20039;-61
2021/11/26 03:09:47;;;;;;;37.30;15.18;;;7.50;90.40;;;;;;5027113;28;20028;-60
2021/11/26 03:12:13;;;;;;;39.60;16.27;;;7.50;90.40;;;;;;5026101;28;20056;-60
2021/11/26 03:14:38;;;;;;;29.23;14.40;;;7.50;90.40;;;;;;5026864;28;20017;-60
2021/11/26 03:17:04;;;;;;;34.38;15.18;;;7.50;90.40;;;;;;5053853;28;20146;-60
2021/11/26 03:19:29;;;;;;;38.38;15.27;;;7.40;90.40;;;;;;5030773;28;20232;-60
2021/11/26 03:21:55;;;;;;;34.10;15.15;;;7.40;90.40;;;;;;5017405;28;20082;-64
2021/11/26 03:24:20;;;;;;;28.15;15.10;;;7.40;90.40;;;;;;5050072;28;20441;-60
2021/11/26 03:26:46;;;;;;;32.70;15.70;;;7.50;90.40;;;;;;5034650;28;20499;-61
2021/11/26 03:29:11;;;;;;;33.20;14.63;;;7.40;90.40;;;;;;5034393;28;20052;-60
2021/11/26 03:31:37;;;;;;;27.48;13.40;;;7.60;90.50;;;;;;5033536;28;20056;-61
2021/11/26 03:34:03;;;;;;;37.92;14.57;;;7.40;90.40;;;;;;5050399;28;20458;-60
2021/11/26 03:36:28;;;;;;;33.85;16.40;;;7.40;90.40;;;;;;5033347;28;20032;-60
2021/11/26 03:38:54;;;;;;;32.88;14.85;;;7.40;90.40;;;;;;5034770;28;20032;-60
2021/11/26 03:41:19;;;;;;;27.90;14.38;;;7.30;90.40;;;;;;5019163;28;20032;-60
2021/11/26 03:43:45;;;;;;;42.50;14.32;;;7.30;90.40;;;;;;5067823;28;20107;-60
2021/11/26 03:46:11;;;;;;;29.98;13.77;;;7.30;90.40;;;;;;5017212;28;20123;-60
2021/11/26 03:48:36;;;;;;;27.27;12.93;;;7.30;90.40;;;;;;5017252;28;20024;-60
2021/11/26 03:51:02;;;;;;;33.45;15.73;;;7.50;90.50;;;;;;5017168;28;20508;-60
2021/11/26 03:53:27;;;;;;;29.05;14.25;;;7.30;90.40;;;;;;5069070;28;20037;-60
2021/11/26 03:55:53;;;;;;;27.77;13.90;;;7.20;90.40;;;;;;5034831;28;20037;-60
2021/11/26 03:58:19;;;;;;;31.80;13.63;;;7.20;90.40;;;;;;5016034;28;20459;-60
2021/11/26 04:00:44;;;;;;;23.13;13.02;;;7.30;90.50;;;;;;5016486;28;20028;-60
2021/11/26 04:03:10;;;;;;;30.38;13.80;;;7.20;90.40;;;;;;5032996;28;20029;-60
2021/11/26 04:05:35;;;;;;;30.90;13.32;;;7.20;90.40;;;;;;5049381;28;20112;-60
2021/11/26 04:08:01;;;;;;;30.50;14.05;;;7.20;90.50;;;;;;5035386;28;20036;-60
2021/11/26 04:10:26;;;;;;;24.13;12.57;;;7.20;90.60;;;;;;5034119;28;20071;-60
2021/11/26 04:12:52;;;;;;;28.15;12.90;;;7.20;90.40;;;;;;5049415;28;20067;-60
2021/11/26 04:15:18;;;;;;;25.98;12.45;;;7.20;90.40;;;;;;5031866;28;20380;-60
2021/11/26 04:17:46;;;;;;;23.67;11.48;;;7.10;90.40;;;;;;5033987;28;20035;-60
2021/11/26 04:20:12;;;;;;;32.28;12.90;;;7.10;90.40;;;;;;5034656;28;20069;-60
2021/11/26 04:22:37;;;;;;;30.92;11.82;;;7.10;90.50;;;;;;5016175;28;20048;-60
2021/11/26 04:25:04;;;;;;;20.60;12.02;;;7.10;90.50;;;;;;5016693;28;20048;-60
2021/11/26 04:27:29;;;;;;;26.45;12.30;;;7.10;90.50;;;;;;5015042;28;20167;-61
2021/11/26 04:29:55;;;;;;;23.65;12.60;;;7.10;90.60;;;;;;5014789;28;20263;-60
2021/11/26 04:32:20;;;;;;;21.30;12.50;;;7.10;90.50;;;;;;5012669;28;20048;-60
2021/11/26 04:34:46;;;;;;;25.98;12.38;;;7.00;90.50;;;;;;5014347;28;20468;-61
2021/11/26 04:37:11;;;;;;;24.38;12.07;;;7.00;90.50;;;;;;5047713;28;20016;-61
2021/11/26 04:39:37;;;;;;;25.23;11.35;;;7.00;90.50;;;;;;5030968;28;20055;-61
2021/11/26 04:42:03;;;;;;;23.13;11.43;;;7.00;90.50;;;;;;5030311;28;20028;-61
2021/11/26 04:44:28;;;;;;;23.67;11.85;;;7.00;90.60;;;;;;5014757;28;20037;-61
2021/11/26 04:46:54;;;;;;;23.33;11.65;;;7.00;90.90;;;;;;5029646;28;20036;-61
2021/11/26 04:49:19;;;;;;;21.38;11.43;;;7.00;90.60;;;;;;5063395;28;20580;-60
2021/11/26 04:51:45;;;;;;;22.63;12.27;;;7.00;90.60;;;;;;5026138;28;20127;-61
2021/11/26 04:54:10;;;;;;;18.67;11.75;;;7.00;90.60;;;;;;5030539;28;20035;-61
2021/11/26 04:56:35;;;;;;;22.90;12.70;;;6.90;90.60;;;;;;5029714;28;20353;-61
2021/11/26 04:59:01;;;;;;;22.13;12.13;;;7.00;90.60;;;;;;5031318;28;20059;-61
2021/11/26 05:01:27;;;;;;;24.35;11.80;;;6.90;90.60;;;;;;5013625;28;20349;-61
2021/11/26 05:03:52;;;;;;;28.83;13.23;;;6.90;90.60;;;;;;5013647;28;20363;-61
2021/11/26 05:06:18;;;;;;;24.50;13.20;;;6.90;90.60;;;;;;5014820;28;20520;-61
2021/11/26 05:08:44;;;;;;;20.52;11.63;;;6.80;90.70;;;;;;5014952;28;20055;-61
2021/11/26 05:11:10;;;;;;;19.05;12.00;;;6.90;90.70;;;;;;5014652;28;20553;-60
2021/11/26 05:13:43;;;;;;;21.48;12.73;;;6.90;90.70;;;;;;5014800;28;20124;-61
2021/11/26 05:16:09;;;;;;;20.88;11.95;;;6.80;90.70;;;;;;5031266;28;20077;-65
2021/11/26 05:18:35;;;;;;;19.27;12.00;;;6.70;90.60;;;;;;5013273;28;20032;-61
2021/11/26 05:21:00;;;;;;;20.50;11.70;;;6.80;90.70;;;;;;5012429;28;20036;-60
2021/11/26 05:23:26;;;;;;;24.67;12.18;;;6.80;90.80;;;;;;5015119;28;20029;-61
2021/11/26 05:25:52;;;;;;;23.38;11.57;;;6.70;90.70;;;;;;5019438;28;20035;-62
2021/11/26 05:28:17;;;;;;;28.58;12.82;;;6.70;90.70;;;;;;5028809;28;20043;-60
2021/11/26 05:30:45;;;;;;;22.00;12.95;;;6.70;90.70;;;;;;5012692;28;20024;-61
2021/11/26 05:33:11;;;;;;;23.38;13.55;;;6.70;90.70;;;;;;5027660;28;20129;-61
2021/11/26 05:35:36;;;;;;;20.67;12.60;;;6.70;90.80;;;;;;5011331;28;20464;-61
2021/11/26 05:38:02;;;;;;;24.02;13.50;;;6.70;90.80;;;;;;5014977;28;20027;-60
2021/11/26 05:40:28;;;;;;;23.88;13.18;;;6.70;90.80;;;;;;5044841;28;20025;-61
2021/11/26 05:42:53;;;;;;;20.13;12.90;;;6.70;90.80;;;;;;5013832;28;20032;-61
2021/11/26 05:45:19;;;;;;;28.50;13.48;;;6.70;90.80;;;;;;5030166;28;20478;-61
2021/11/26 05:47:45;;;;;;;77.53;17.40;;;6.70;90.70;;;;;;5012323;28;20060;-61
2021/11/26 05:50:12;;;;;;;143.48;22.05;;;6.70;90.70;;;;;;5028368;28;20139;-61
2021/11/26 05:52:37;;;;;;;116.63;18.90;;;6.60;90.70;;;;;;5030425;28;20036;-61
2021/11/26 05:55:04;;;;;;;180.23;24.67;;;6.60;90.80;;;;;;5013343;28;20017;-61
2021/11/26 05:57:29;;;;;;;236.98;26.35;;;6.60;90.80;;;;;;5011891;28;20059;-61
2021/11/26 05:59:55;;;;;;;179.40;25.05;;;6.60;90.80;;;;;;5028023;28;20472;-61
2021/11/26 06:02:20;;;;;;;166.95;23.33;;;6.60;90.80;;;;;;5007505;28;20138;-61
2021/11/26 06:04:46;;;;;;;186.70;24.58;;;6.60;90.80;;;;;;5012663;28;20705;-61
2021/11/26 06:07:12;;;;;;;195.73;23.80;;;6.60;90.90;;;;;;5029457;28;20029;-61
2021/11/26 06:09:38;;;;;;;189.65;24.17;;;6.60;90.90;;;;;;5026442;28;20052;-61
2021/11/26 06:12:05;;;;;;;158.45;22.52;;;6.60;90.90;;;;;;5028614;28;20077;-61
2021/11/26 06:14:30;;;;;;;184.40;22.88;;;6.60;90.80;;;;;;5012066;28;20031;-61
2021/11/26 06:16:56;;;;;;;145.18;21.58;;;6.60;90.80;;;;;;5013325;28;20032;-61
2021/11/26 06:19:21;;;;;;;149.45;24.20;;;6.50;90.90;;;;;;5013034;28;20431;-61
2021/11/26 06:21:47;;;;;;;128.75;20.98;;;6.60;90.90;;;;;;5011761;28;20035;-61
2021/11/26 06:24:12;;;;;;;120.75;20.13;;;6.50;90.90;;;;;;5011482;28;20017;-61
2021/11/26 06:26:39;;;;;;;112.65;21.15;;;6.50;90.80;;;;;;5011228;28;20079;-61
2021/11/26 06:29:05;;;;;;;107.53;20.27;;;6.50;90.80;;;;;;5029973;28;20027;-61
2021/11/26 06:31:30;;;;;;;96.80;20.25;;;6.50;90.90;;;;;;5046762;28;20111;-61
2021/11/26 06:33:56;;;;;;;92.93;20.50;;;6.50;90.90;;;;;;5028242;28;20029;-61
2021/11/26 06:36:22;;;;;;;99.63;19.55;;;6.50;90.90;;;;;;5011958;28;20044;-61
2021/11/26 06:38:47;;;;;;;102.85;21.30;;;6.50;90.90;;;;;;5026858;28;20033;-61
2021/11/26 06:41:13;;;;;;;103.25;20.83;;;6.50;90.90;;;;;;5011776;28;20024;-61
2021/11/26 06:43:38;;;;;;;86.97;20.35;;;6.50;90.90;;;;;;5046121;28;20060;-61
2021/11/26 06:46:04;;;;;;;90.15;19.65;;;6.40;90.80;;;;;;5028192;28;20099;-61
2021/11/26 06:48:29;;;;;;;93.97;20.48;;;6.50;90.80;;;;;;5043815;28;20416;-61
2021/11/26 06:50:55;;;;;;;107.45;19.73;;;6.50;90.80;;;;;;5027088;28;20307;-60
2021/11/26 06:53:21;;;;;;;95.85;20.58;;;6.40;90.80;;;;;;5028512;28;20048;-61
2021/11/26 06:55:46;;;;;;;85.93;19.00;;;6.50;90.90;;;;;;5013375;28;20024;-61
2021/11/26 06:58:12;;;;;;;102.25;19.73;;;6.40;90.90;;;;;;5011079;28;20118;-61
2021/11/26 07:00:37;;;;;;;111.63;21.20;;;6.40;90.90;;;;;;5027444;28;20039;-61
2021/11/26 07:03:03;;;;;;;98.07;20.33;;;6.40;91.00;;;;;;5010564;28;20056;-61
2021/11/26 07:05:29;;;;;;;80.95;19.70;;;6.40;91.00;;;;;;5014154;28;20032;-61
2021/11/26 07:07:55;;;;;;;92.03;18.80;;;6.40;91.00;;;;;;5029865;28;20059;-61
2021/11/26 07:10:21;;;;;;;78.28;19.10;;;6.50;91.00;;;;;;5029351;28;20351;-62
2021/11/26 07:12:46;;;;;;;88.72;19.10;;;6.40;91.10;;;;;;5011396;28;20035;-61
2021/11/26 07:15:13;;;;;;;175.95;25.63;;;6.40;91.10;;;;;;5026607;28;20039;-61
2021/11/26 07:17:38;;;;;;;95.90;20.98;;;6.40;91.00;;;;;;5023867;28;20379;-61
2021/11/26 07:20:05;;;;;;;90.68;19.88;;;6.40;91.00;;;;;;5011413;28;20037;-62
2021/11/26 07:22:30;;;;;;;92.82;20.85;;;6.40;91.00;;;;;;5027366;28;20051;-61
2021/11/26 07:24:56;;;;;;;77.22;18.70;;;6.40;91.00;;;;;;5027734;28;20036;-61
2021/11/26 07:27:21;;;;;;;99.20;21.27;;;6.40;91.00;;;;;;5011796;28;20846;-61
2021/11/26 07:29:47;;;;;;;88.85;20.30;;;6.40;91.00;;;;;;5044005;28;20098;-61
2021/11/26 07:32:12;;;;;;;79.53;19.08;;;6.40;91.00;;;;;;5009632;28;20128;-62
2021/11/26 07:34:42;;;;;;;89.70;19.23;;;6.40;91.10;;;;;;5011319;28;20079;-61
2021/11/26 07:37:11;;;;;;;88.13;19.67;;;6.40;91.00;;;;;;5019217;28;20422;-62
2021/11/26 07:39:38;;;;;;;71.45;19.50;;;6.40;91.10;;;;;;5026565;28;20020;-61
2021/11/26 07:42:07;;;;;;;87.25;21.35;;;6.40;91.00;;;;;;5026358;28;20255;-60
2021/11/26 07:44:34;;;;;;;93.88;20.27;;;6.40;91.00;;;;;;5042610;28;20107;-62
2021/11/26 07:47:00;;;;;;;110.72;21.38;;;6.40;91.00;;;;;;5011451;28;20021;-61
2021/11/26 07:49:28;;;;;;;114.28;21.40;;;6.40;91.10;;;;;;5027930;28;20031;-61
2021/11/26 07:51:55;;;;;;;93.95;21.92;;;6.40;91.00;;;;;;5011742;28;20021;-62
2021/11/26 07:54:21;;;;;;;107.80;22.48;;;6.30;91.00;;;;;;5010955;28;20054;-61
2021/11/26 07:56:46;;;;;;;100.75;22.88;;;6.30;91.10;;;;;;5009607;28;20086;-61
2021/11/26 07:59:12;;;;;;;140.48;24.65;;;6.30;91.10;;;;;;5026974;28;20059;-61
2021/11/26 08:01:37;;;;;;;141.55;24.38;;;6.30;91.20;;;;;;5026816;28;20468;-61
2021/11/26 08:04:03;;;;;;;126.88;23.95;;;6.30;91.30;;;;;;5030898;28;20048;-61
2021/11/26 08:06:28;;;;;;;131.52;23.73;;;6.30;91.40;;;;;;5032540;28;20543;-62
2021/11/26 08:08:54;;;;;;;118.38;24.50;;;6.30;91.30;;;;;;5013689;28;20029;-61
2021/11/26 08:11:19;;;;;;;137.07;23.13;;;6.30;91.20;;;;;;5012171;28;20131;-61
2021/11/26 08:13:45;;;;;;;112.63;21.77;;;6.30;91.10;;;;;;5031710;28;20027;-61
2021/11/26 08:16:11;;;;;;;86.60;19.83;;;6.30;91.20;;;;;;5030259;28;20077;-61
2021/11/26 08:18:37;;;;;;;111.07;23.05;;;6.20;91.10;;;;;;5013913;28;20017;-61
2021/11/26 08:21:03;;;;;;;122.32;22.73;;;6.40;91.30;;;;;;5034819;28;20454;-62
2021/11/26 08:23:28;;;;;;;139.35;24.30;;;6.40;91.40;;;;;;5026695;28;20104;-61
2021/11/26 08:25:55;;;;;;;116.70;24.10;;;6.40;91.40;;;;;;5028752;28;20041;-61
2021/11/26 08:28:21;;;;;;;111.57;23.83;;;6.40;91.40;;;;;;5028775;28;20843;-60
2021/11/26 08:30:46;;;;;;;119.75;22.85;;;6.40;91.30;;;;;;5012422;28;20063;-60
2021/11/26 08:33:12;;;;;;;149.38;25.48;;;6.40;91.20;;;;;;5028649;28;20036;-61
2021/11/26 08:35:37;;;;;;;122.40;25.08;;;6.40;91.30;;;;;;5011264;28;20361;-61
2021/11/26 08:38:03;;;;;;;118.18;23.25;;;6.40;91.40;;;;;;5029997;28;20043;-61
2021/11/26 08:40:29;;;;;;;128.68;23.17;;;6.40;91.20;;;;;;5046680;28;20024;-61
2021/11/26 08:42:54;;;;;;;158.27;26.73;;;6.30;91.20;;;;;;5012698;28;20029;-61
2021/11/26 08:45:20;;;;;;;105.55;22.88;;;6.40;91.20;;;;;;5005417;28;20130;-61
2021/11/26 08:47:45;;;;;;;136.20;23.65;;;6.30;91.20;;;;;;5025685;28;20029;-61
2021/11/26 08:50:14;;;;;;;122.78;23.90;;;6.30;91.20;;;;;;5020864;28;20053;-61
2021/11/26 08:52:40;;;;;;;102.78;22.10;;;6.30;91.30;;;;;;5012899;28;21077;-61
2021/11/26 08:55:07;;;;;;;215.38;30.85;;;6.30;91.20;;;;;;5043665;28;20057;-61
2021/11/26 08:57:35;;;;;;;198.55;33.33;;;6.40;91.40;;;;;;5025866;28;20448;-62
2021/11/26 09:00:00;;;;;;;147.05;26.02;;;6.40;91.40;;;;;;5025475;28;20036;-61
2021/11/26 09:02:26;;;;;;;168.13;29.08;;;6.40;91.40;;;;;;5009830;28;20336;-61
2021/11/26 09:04:51;;;;;;;143.55;26.20;;;6.40;91.40;;;;;;5026387;28;20059;-62
2021/11/26 09:07:17;;;;;;;137.23;26.70;;;6.40;91.30;;;;;;5013402;28;20036;-61
2021/11/26 09:09:42;;;;;;;141.25;28.35;;;6.30;91.30;;;;;;5045403;28;20036;-60
2021/11/26 09:12:08;;;;;;;165.82;28.38;;;6.30;91.20;;;;;;5027528;28;20028;-60
2021/11/26 09:14:34;;;;;;;159.00;30.25;;;6.30;91.30;;;;;;5012089;28;20388;-61
2021/11/26 09:16:59;;;;;;;151.88;27.80;;;6.30;91.40;;;;;;5008558;28;20260;-63
2021/11/26 09:19:25;;;;;;;221.80;31.80;;;6.50;91.60;;;;;;5008327;28;20133;-61
2021/11/26 09:21:50;;;;;;;186.18;30.23;;;6.40;91.50;;;;;;5024488;28;20036;-61
2021/11/26 09:24:16;;;;;;;220.10;34.15;;;6.40;91.60;;;;;;5027895;28;20446;-61
2021/11/26 09:26:42;;;;;;;195.32;33.25;;;6.40;91.70;;;;;;5024088;28;20025;-61
2021/11/26 09:29:07;;;;;;;191.18;31.27;;;6.40;91.80;;;;;;5010993;28;20036;-61
2021/11/26 09:31:33;;;;;;;200.35;31.48;;;6.40;91.80;;;;;;5009769;28;20502;-61
2021/11/26 09:33:59;;;;;;;185.65;32.40;;;6.40;91.80;;;;;;5027271;28;20067;-62
2021/11/26 09:36:27;;;;;;;200.13;32.42;;;6.40;91.80;;;;;;5041821;28;20025;-62
2021/11/26 09:38:54;;;;;;;198.95;33.30;;;6.50;91.90;;;;;;5027542;28;20221;-61
2021/11/26 09:41:21;;;;;;;157.20;29.50;;;6.50;91.80;;;;;;5009046;28;20032;-61
2021/11/26 09:43:50;;;;;;;178.23;31.80;;;6.40;91.80;;;;;;5008932;28;20044;-61
2021/11/26 09:46:19;;;;;;;195.05;30.45;;;6.50;91.70;;;;;;5010913;28;20028;-61
2021/11/26 09:48:45;;;;;;;174.88;30.00;;;6.50;91.90;;;;;;5023344;28;20048;-62
2021/11/26 09:51:11;;;;;;;199.52;34.72;;;6.50;91.90;;;;;;5024516;28;20138;-62
2021/11/26 09:53:37;;;;;;;194.05;31.83;;;6.50;92.00;;;;;;5011213;28;20459;-61
2021/11/26 09:56:04;;;;;;;202.45;33.55;;;6.50;92.10;;;;;;5021724;28;20147;-61
2021/11/26 09:58:31;;;;;;;203.68;35.42;;;6.60;92.10;;;;;;5041735;28;20066;-61
2021/11/26 10:00:57;;;;;;;275.05;38.38;;;6.60;92.10;;;;;;5023257;28;20670;-62
2021/11/26 10:03:23;;;;;;;229.20;36.75;;;6.60;92.10;;;;;;4997100;28;20812;-62
2021/11/26 10:05:49;;;;;;;234.98;36.33;;;6.60;92.20;;;;;;5001147;28;20119;-62
2021/11/26 10:08:24;;;;;;;225.05;34.58;;;6.60;92.20;;;;;;5018292;28;20135;-61
2021/11/26 10:10:49;;;;;;;204.68;34.90;;;6.50;92.20;;;;;;5005143;28;20037;-62
2021/11/26 10:13:16;;;;;;;213.20;33.58;;;6.60;92.20;;;;;;5020779;28;20060;-62
2021/11/26 10:15:46;;;;;;;256.15;36.33;;;6.70;92.30;;;;;;5022369;28;20041;-61
2021/11/26 10:18:17;;;;;;;218.93;35.33;;;6.70;92.40;;;;;;5053298;28;20029;-62
2021/11/26 10:20:54;;;;;;;249.35;38.13;;;6.70;92.60;;;;;;5015008;28;20898;-61
2021/11/26 10:23:21;;;;;;;236.73;36.63;;;6.70;92.50;;;;;;5034397;28;20105;-62
2021/11/26 10:25:46;;;;;;;184.20;34.67;;;6.70;92.50;;;;;;5017999;28;20037;-62
2021/11/26 10:28:12;;;;;;;190.40;34.33;;;6.90;92.60;;;;;;5017361;28;20373;-62
2021/11/26 10:30:45;;;;;;;227.40;36.47;;;6.80;92.50;;;;;;5003598;28;20040;-61
2021/11/26 10:33:23;;;;;;;229.20;35.75;;;6.80;92.50;;;;;;5017512;28;20036;-62
2021/11/26 10:35:57;;;;;;;214.55;35.15;;;6.80;92.40;;;;;;5034917;28;20028;-62
2021/11/26 10:38:26;;;;;;;259.10;38.85;;;6.80;92.50;;;;;;5003439;28;20029;-62
2021/11/26 10:40:54;;;;;;;217.80;35.90;;;6.80;92.60;;;;;;5016853;28;20543;-62
2021/11/26 10:57:22;;;;;;;234.40;37.58;;;6.90;92.70;;;;;;5020064;28;20072;-65
2021/11/26 10:59:42;;;;;;;286.20;39.53;;;6.90;92.50;;;;;;5021082;28;20052;-62
2021/11/26 11:02:08;;;;;;;253.50;39.10;;;6.90;92.60;;;;;;5002286;28;20096;-62
2021/11/26 11:04:33;;;;;;;315.73;43.70;;;6.90;92.70;;;;;;5014462;28;20068;-62
2021/11/26 11:07:00;;;;;;;267.02;41.40;;;7.00;92.70;;;;;;5028741;28;20021;-63
2021/11/26 11:09:26;;;;;;;259.92;39.95;;;7.00;93.00;;;;;;5034472;28;20129;-62
2021/11/26 11:11:53;;;;;;;253.18;37.80;;;7.00;92.70;;;;;;5018475;28;20029;-62
2021/11/26 11:14:21;;;;;;;251.93;40.38;;;7.00;92.60;;;;;;5049859;28;20504;-61
2021/11/26 11:16:54;;;;;;;303.55;42.83;;;7.00;92.70;;;;;;5019303;28;20040;-63
2021/11/26 11:19:20;;;;;;;232.75;37.35;;;7.00;92.70;;;;;;5001715;28;20132;-63
2021/11/26 11:21:46;;;;;;;281.13;40.65;;;7.00;92.70;;;;;;5050452;28;20555;-62
2021/11/26 11:24:12;;;;;;;247.77;40.40;;;7.00;92.80;;;;;;4996155;28;20060;-62
2021/11/26 11:26:40;;;;;;;274.20;39.08;;;7.00;92.80;;;;;;5001875;28;20042;-63
2021/11/26 11:29:06;;;;;;;262.23;41.58;;;7.00;92.90;;;;;;5017144;28;20058;-62
2021/11/26 11:31:32;;;;;;;254.68;38.97;;;7.10;93.00;;;;;;5034675;28;20051;-62
2021/11/26 11:33:57;;;;;;;277.58;44.28;;;7.00;93.00;;;;;;5035847;28;20033;-63
2021/11/26 11:36:22;;;;;;;259.30;42.22;;;7.00;93.10;;;;;;4999923;28;20021;-62
2021/11/26 11:39:00;;;;;;;287.35;42.65;;;7.10;93.10;;;;;;5008202;28;20082;-62
2021/11/26 11:41:26;;;;;;;283.48;41.78;;;7.10;93.20;;;;;;5020856;28;20078;-63
2021/11/26 11:43:51;;;;;;;260.30;41.90;;;7.10;93.20;;;;;;5008866;28;20654;-63
2021/11/26 11:46:18;;;;;;;233.63;40.50;;;7.10;93.20;;;;;;5006385;28;20029;-63
2021/11/26 11:48:47;;;;;;;230.13;40.30;;;7.10;93.10;;;;;;5021466;28;20059;-63
2021/11/26 11:51:30;;;;;;;262.08;40.28;;;7.10;93.00;;;;;;5033959;28;20549;-63
2021/11/26 11:54:22;;;;;;;282.90;44.97;;;7.10;92.80;;;;;;5036544;28;20069;-63
2021/11/26 11:56:50;;;;;;;241.00;39.42;;;7.10;92.90;;;;;;5034043;28;20037;-62
2021/11/26 11:59:31;;;;;;;264.80;40.55;;;7.10;92.90;;;;;;5020628;28;20110;-62
2021/11/26 12:01:57;;;;;;;298.27;45.50;;;7.10;93.00;;;;;;5036560;28;20021;-62
2021/11/26 12:04:22;;;;;;;271.83;42.25;;;7.10;92.80;;;;;;5037644;28;20179;-62
2021/11/26 12:06:50;;;;;;;252.07;38.90;;;7.10;92.90;;;;;;5006260;28;20025;-62
2021/11/26 12:09:28;;;;;;;247.02;39.63;;;7.20;92.80;;;;;;5038962;28;20445;-63
2021/11/26 12:12:15;;;;;;;241.90;39.58;;;7.10;92.70;;;;;;5036078;28;20033;-63
2021/11/26 12:14:52;;;;;;;228.85;39.13;;;7.20;93.00;;;;;;5023649;28;20041;-62
2021/11/26 12:17:31;;;;;;;249.40;38.78;;;7.20;93.00;;;;;;5021004;28;20464;-62
2021/11/26 12:20:00;;;;;;;258.45;40.55;;;7.20;93.00;;;;;;5021787;28;20104;-62
2021/11/26 12:23:01;;;;;;;259.10;39.95;;;7.20;93.00;;;;;;5036184;28;20052;-62
2021/11/26 12:25:44;;;;;;;225.45;38.42;;;7.20;92.90;;;;;;5016948;28;20079;-63
2021/11/26 12:28:18;;;;;;;228.27;38.40;;;7.20;92.90;;;;;;5004174;28;20591;-63
2021/11/26 12:30:43;;;;;;;264.20;41.00;;;7.20;92.90;;;;;;5036516;28;20152;-62
2021/11/26 12:33:23;;;;;;;220.27;38.63;;;7.20;93.00;;;;;;5020142;28;20077;-63
2021/11/26 12:36:04;;;;;;;226.43;40.22;;;7.20;93.00;;;;;;5053934;28;20292;-62
2021/11/26 12:38:43;;;;;;;253.35;40.33;;;7.20;93.00;;;;;;5007490;28;20064;-62
2021/11/26 12:41:10;;;;;;;238.82;40.38;;;7.20;93.00;;;;;;5039267;28;20064;-62
2021/11/26 12:43:53;;;;;;;219.85;39.97;;;7.20;92.90;;;;;;5052413;28;20025;-62
2021/11/26 12:46:20;;;;;;;224.55;39.78;;;7.20;93.00;;;;;;5023525;28;20672;-62